Edmonton International, Canada
Current Conditions -  °F | °C
As of 11:00 AM on Monday 22 Dec 2014 (Local Time) from CYEG Reporting Station
Broken Clouds Broken Clouds  
Wind Chill: 20°   Ceiling: 8500
Heat Index: 28°   Visibility: 15mi
Dew Point: 23°   Wind: 9mph
Humidity: 80%   Direction: 290°WNW
Pressure: 29.84"   Gusts: NA
Location:  53.31°N, 113.58°W
Report Text: CYEG 221800Z 29008KT 15SM FEW064 BKN085 BKN110 BKN200 M02/M05 A2984 RMK SC1AC4AC1CI1 SH SW VIRGA S SLP140
Loading
Personal Weather Stations






























Interactive Weather Map New forecast layout! Learn more

10-Day Weather Forecast

Advertisements
Track Severe Weather on mobile